createdAt,value
2023-07-21T00:00:25.588Z,100729.91
2023-07-21T00:01:29.365Z,100728.88
2023-07-21T00:02:32.172Z,100725.38
2023-07-21T00:03:36.288Z,100724.94
2023-07-21T00:04:38.762Z,100723.22
2023-07-21T00:05:42.416Z,100722.13
2023-07-21T00:06:45.133Z,100720.47
2023-07-21T00:07:49.530Z,100717.13
2023-07-21T00:08:55.272Z,100729.78
2023-07-21T00:10:00.585Z,100722.22
2023-07-21T00:11:04.244Z,100717.72
2023-07-21T00:12:08.425Z,100721.00
2023-07-21T00:13:10.993Z,100720.69
2023-07-21T00:14:14.880Z,100716.81
2023-07-21T00:15:19.497Z,100715.25
2023-07-21T00:16:23.625Z,100720.00
2023-07-21T00:17:26.553Z,100714.72
2023-07-21T00:18:31.431Z,100715.28
2023-07-21T00:19:33.803Z,100718.03
2023-07-21T00:20:37.210Z,100711.19
2023-07-21T00:21:39.700Z,100712.41
2023-07-21T00:22:43.686Z,100708.00
2023-07-21T00:23:47.854Z,100713.81
2023-07-21T00:24:53.249Z,100707.16
2023-07-21T00:25:56.523Z,100708.72
2023-07-21T00:27:03.326Z,100710.53
2023-07-21T00:28:06.601Z,100715.09
2023-07-21T00:29:12.163Z,100718.72
2023-07-21T00:30:15.401Z,100713.34
2023-07-21T00:31:19.475Z,100713.44
2023-07-21T00:32:24.147Z,100717.63
2023-07-21T00:33:27.696Z,100710.06
2023-07-21T00:34:30.617Z,100717.69
2023-07-21T00:35:35.808Z,100712.13
2023-07-21T00:36:38.485Z,100709.09
2023-07-21T00:37:43.153Z,100715.16
2023-07-21T00:38:49.107Z,100708.41
2023-07-21T00:39:54.372Z,100718.31
2023-07-21T00:40:57.633Z,100718.75
2023-07-21T00:42:01.043Z,100717.88
2023-07-21T00:43:04.784Z,100720.88
2023-07-21T00:44:09.818Z,100721.25
2023-07-21T00:45:15.624Z,100730.63
2023-07-21T00:46:20.075Z,100724.22
2023-07-21T00:47:23.162Z,100721.66
2023-07-21T00:48:27.438Z,100721.25
2023-07-21T00:49:30.214Z,100715.69
2023-07-21T00:50:33.731Z,100718.13
2023-07-21T00:51:37.045Z,100715.34
2023-07-21T00:52:40.634Z,100719.50
2023-07-21T00:53:43.196Z,100720.13
2023-07-21T00:54:45.676Z,100725.13
2023-07-21T00:55:52.027Z,100715.69
2023-07-21T00:56:55.229Z,100705.78
2023-07-21T00:57:58.570Z,100715.69
2023-07-21T00:59:01.616Z,100714.03
2023-07-21T01:00:09.344Z,100724.19
2023-07-21T01:01:12.857Z,100723.19
2023-07-21T01:02:17.751Z,100730.94
2023-07-21T01:03:20.831Z,100727.81
2023-07-21T01:04:25.029Z,100726.69
2023-07-21T01:05:27.859Z,100726.06
2023-07-21T01:06:32.886Z,100733.66
2023-07-21T01:07:37.977Z,100746.78
2023-07-21T01:08:41.798Z,100739.34
2023-07-21T01:09:45.137Z,100745.03
2023-07-21T01:10:51.478Z,100753.31
2023-07-21T01:11:53.922Z,100758.56
2023-07-21T01:12:58.658Z,100749.88
2023-07-21T01:14:04.150Z,100748.63
2023-07-21T01:15:08.998Z,100747.84
2023-07-21T01:16:13.895Z,100743.91
2023-07-21T01:17:18.053Z,100739.03
2023-07-21T01:18:21.860Z,100742.28
2023-07-21T01:19:28.729Z,100743.63
2023-07-21T01:20:32.294Z,100748.06
2023-07-21T01:21:42.666Z,100751.09
2023-07-21T01:22:52.096Z,100753.97
2023-07-21T01:24:01.245Z,100756.47
2023-07-21T01:25:14.148Z,100763.81
2023-07-21T01:26:19.106Z,100759.56
2023-07-21T01:27:24.843Z,100766.06
2023-07-21T01:28:30.515Z,100763.59
2023-07-21T01:29:35.874Z,100767.28
2023-07-21T01:30:42.046Z,100760.44
2023-07-21T01:31:47.065Z,100758.56
2023-07-21T01:32:53.058Z,100754.91
2023-07-21T01:33:56.651Z,100755.78
2023-07-21T01:35:00.648Z,100751.00
2023-07-21T01:36:04.995Z,100752.66
2023-07-21T01:37:10.153Z,100752.22
2023-07-21T01:38:14.739Z,100750.22
2023-07-21T01:39:18.575Z,100747.88
2023-07-21T01:40:24.312Z,100752.53
2023-07-21T01:41:29.038Z,100754.03
2023-07-21T01:42:32.005Z,100752.22
2023-07-21T01:43:36.103Z,100754.91
2023-07-21T01:44:39.269Z,100758.34
2023-07-21T01:45:42.819Z,100756.59
2023-07-21T01:46:47.524Z,100748.31
2023-07-21T01:47:49.979Z,100754.03
2023-07-21T01:48:53.352Z,100745.50
2023-07-21T01:49:55.663Z,100740.28
2023-07-21T01:51:00.324Z,100730.78
2023-07-21T01:52:03.250Z,100735.13
2023-07-21T01:53:10.513Z,100738.81
2023-07-21T01:54:19.684Z,100742.28
2023-07-21T01:55:28.663Z,100739.50
2023-07-21T01:56:37.931Z,100733.44
2023-07-21T01:57:46.602Z,100746.03
2023-07-21T01:58:49.806Z,100740.25
2023-07-21T01:59:56.278Z,100735.00
2023-07-21T02:01:00.062Z,100737.03
2023-07-21T02:02:04.207Z,100740.28
2023-07-21T02:03:08.944Z,100726.09
2023-07-21T02:04:12.706Z,100733.91
2023-07-21T02:05:22.002Z,100734.13
2023-07-21T02:06:25.705Z,100735.00
2023-07-21T02:07:28.669Z,100731.91
2023-07-21T02:08:32.582Z,100741.91
2023-07-21T02:09:35.039Z,100737.25
2023-07-21T02:10:40.157Z,100740.56
2023-07-21T02:11:42.764Z,100738.56
2023-07-21T02:12:46.527Z,100727.94
2023-07-21T02:13:49.723Z,100736.34
2023-07-21T02:14:53.814Z,100739.91
2023-07-21T02:15:57.311Z,100731.97
2023-07-21T02:17:00.648Z,100733.31
2023-07-21T02:18:03.077Z,100732.53
2023-07-21T02:19:07.157Z,100732.97
2023-07-21T02:20:11.253Z,100731.28
2023-07-21T02:21:13.521Z,100731.63
2023-07-21T02:22:16.951Z,100729.38
2023-07-21T02:23:19.442Z,100729.63
2023-07-21T02:24:23.041Z,100734.00
2023-07-21T02:25:25.995Z,100726.88
2023-07-21T02:26:30.942Z,100728.31
2023-07-21T02:27:34.344Z,100733.41
2023-07-21T02:28:37.817Z,100738.09
2023-07-21T02:29:40.315Z,100734.97
2023-07-21T02:30:43.879Z,100733.84
2023-07-21T02:31:47.247Z,100726.47
2023-07-21T02:32:50.829Z,100731.91
2023-07-21T02:33:53.541Z,100730.16
2023-07-21T02:34:57.992Z,100731.38
2023-07-21T02:36:01.770Z,100721.09
2023-07-21T02:37:06.080Z,100732.91
2023-07-21T02:38:08.566Z,100730.63
2023-07-21T02:39:12.490Z,100731.75
2023-07-21T02:40:15.961Z,100735.53
2023-07-21T02:41:19.445Z,100724.00
2023-07-21T02:42:23.348Z,100726.59
2023-07-21T02:43:25.814Z,100734.69
2023-07-21T02:44:30.965Z,100732.53
2023-07-21T02:45:33.576Z,100730.53
2023-07-21T02:46:37.708Z,100731.19
2023-07-21T02:47:41.040Z,100731.72
2023-07-21T02:48:44.936Z,100733.16
2023-07-21T02:49:47.402Z,100735.94
2023-07-21T02:50:51.732Z,100730.53
2023-07-21T02:51:54.535Z,100734.19
2023-07-21T02:52:58.203Z,100725.19
2023-07-21T02:54:00.731Z,100733.03
2023-07-21T02:55:05.184Z,100730.44
2023-07-21T02:56:07.780Z,100736.56
2023-07-21T02:57:11.349Z,100738.75
2023-07-21T02:58:16.876Z,100739.59
2023-07-21T02:59:22.144Z,100735.69
2023-07-21T03:00:24.591Z,100743.28
2023-07-21T03:01:28.097Z,100745.50
2023-07-21T03:02:31.641Z,100745.22
2023-07-21T03:03:36.614Z,100740.88
2023-07-21T03:04:43.795Z,100740.41
2023-07-21T03:05:47.572Z,100741.06
2023-07-21T03:06:50.072Z,100742.00
2023-07-21T03:07:53.954Z,100740.09
2023-07-21T03:08:56.717Z,100736.16
2023-07-21T03:10:00.492Z,100741.44
2023-07-21T03:11:03.084Z,100735.84
2023-07-21T03:12:07.158Z,100741.59
2023-07-21T03:13:09.599Z,100744.50
2023-07-21T03:14:13.895Z,100737.31
2023-07-21T03:15:17.670Z,100742.97
2023-07-21T03:16:20.221Z,100744.13
2023-07-21T03:17:23.837Z,100743.84
2023-07-21T03:18:26.657Z,100743.66
2023-07-21T03:19:32.047Z,100749.00
2023-07-21T03:20:34.585Z,100750.34
2023-07-21T03:21:38.132Z,100751.69
2023-07-21T03:22:40.658Z,100751.78
2023-07-21T03:23:46.932Z,100751.22
2023-07-21T03:24:49.466Z,100754.31
2023-07-21T03:25:53.700Z,100756.84
2023-07-21T03:26:56.488Z,100758.03
2023-07-21T03:28:00.539Z,100752.59
2023-07-21T03:29:03.153Z,100755.03
2023-07-21T03:30:09.980Z,100754.41
2023-07-21T03:31:13.632Z,100751.22
2023-07-21T03:32:17.262Z,100753.84
2023-07-21T03:33:19.718Z,100754.91
2023-07-21T03:34:23.680Z,100759.09
2023-07-21T03:35:26.348Z,100762.25
2023-07-21T03:36:30.360Z,100763.91
2023-07-21T03:37:35.946Z,100765.31
2023-07-21T03:38:40.262Z,100770.84
2023-07-21T03:39:45.434Z,100767.63
2023-07-21T03:40:48.855Z,100765.97
2023-07-21T03:41:51.213Z,100771.97
2023-07-21T03:42:55.006Z,100773.44
2023-07-21T03:43:57.612Z,100774.84
2023-07-21T03:45:02.708Z,100777.69
2023-07-21T03:46:07.957Z,100775.66
2023-07-21T03:47:11.648Z,100781.91
2023-07-21T03:48:14.984Z,100782.25
2023-07-21T03:49:18.287Z,100785.38
2023-07-21T03:50:20.694Z,100784.06
2023-07-21T03:51:24.154Z,100779.16
2023-07-21T03:52:27.667Z,100784.41
2023-07-21T03:53:37.034Z,100774.25
2023-07-21T03:54:40.260Z,100771.13
2023-07-21T03:55:44.812Z,100776.81
2023-07-21T03:56:48.008Z,100775.81
2023-07-21T03:57:51.416Z,100773.50
2023-07-21T03:58:55.010Z,100774.69
2023-07-21T03:59:59.274Z,100777.13
2023-07-21T04:01:01.966Z,100777.00
2023-07-21T04:02:07.624Z,100771.59
2023-07-21T04:03:10.097Z,100769.31
2023-07-21T04:04:13.726Z,100767.53
2023-07-21T04:05:16.918Z,100764.31
2023-07-21T04:06:21.915Z,100761.63
2023-07-21T04:07:24.478Z,100760.41
2023-07-21T04:08:27.998Z,100760.41
2023-07-21T04:09:30.479Z,100761.34
2023-07-21T04:10:34.407Z,100762.25
2023-07-21T04:11:36.790Z,100764.47
2023-07-21T04:12:40.281Z,100760.03
2023-07-21T04:13:42.670Z,100763.59
2023-07-21T04:14:46.269Z,100754.34
2023-07-21T04:15:52.277Z,100759.81
2023-07-21T04:16:56.973Z,100756.22
2023-07-21T04:18:00.836Z,100769.28
2023-07-21T04:19:04.931Z,100766.59
2023-07-21T04:20:11.329Z,100761.22
2023-07-21T04:21:14.848Z,100761.88
2023-07-21T04:22:17.949Z,100764.03
2023-07-21T04:23:21.325Z,100768.94
2023-07-21T04:24:23.800Z,100769.50
2023-07-21T04:25:26.390Z,100772.53
2023-07-21T04:26:30.045Z,100772.88
2023-07-21T04:27:32.569Z,100766.06
2023-07-21T04:28:36.092Z,100770.09
2023-07-21T04:29:39.225Z,100759.81
2023-07-21T04:30:43.791Z,100764.38
2023-07-21T04:31:46.211Z,100769.53
2023-07-21T04:32:49.902Z,100763.28
2023-07-21T04:33:53.860Z,100766.81
2023-07-21T04:34:57.827Z,100772.97
2023-07-21T04:36:01.343Z,100768.34
2023-07-21T04:37:05.452Z,100773.16
2023-07-21T04:38:08.197Z,100772.94
2023-07-21T04:39:11.863Z,100770.03
2023-07-21T04:40:14.141Z,100771.28
2023-07-21T04:41:17.862Z,100771.41
2023-07-21T04:42:20.192Z,100775.09
2023-07-21T04:43:23.999Z,100773.41
2023-07-21T04:44:26.504Z,100776.53
2023-07-21T04:45:30.180Z,100781.00
2023-07-21T04:46:33.312Z,100783.78
2023-07-21T04:47:36.845Z,100778.88
2023-07-21T04:48:39.336Z,100782.75
2023-07-21T04:49:44.200Z,100785.91
2023-07-21T04:50:52.695Z,100783.00
2023-07-21T04:51:56.091Z,100794.63
2023-07-21T04:52:58.783Z,100792.50
2023-07-21T04:54:02.082Z,100790.16
2023-07-21T04:55:07.043Z,100783.91
2023-07-21T04:56:10.966Z,100786.59
2023-07-21T04:57:13.349Z,100787.56
2023-07-21T04:58:16.804Z,100783.78
2023-07-21T04:59:20.278Z,100782.09
2023-07-21T05:00:24.022Z,100785.97
2023-07-21T05:01:26.517Z,100788.88
2023-07-21T05:03:14.364Z,100791.19
2023-07-21T05:04:18.076Z,100797.38
2023-07-21T05:05:22.958Z,100798.38
2023-07-21T05:06:25.837Z,100802.28
2023-07-21T05:07:29.407Z,100800.59
2023-07-21T05:08:31.817Z,100797.69
2023-07-21T05:09:35.447Z,100801.03
2023-07-21T05:10:38.203Z,100795.44
2023-07-21T05:11:41.693Z,100799.34
2023-07-21T05:12:44.421Z,100800.16
2023-07-21T05:13:49.880Z,100800.66
2023-07-21T05:14:52.575Z,100800.25
2023-07-21T05:15:55.988Z,100799.66
2023-07-21T05:16:58.451Z,100803.34
2023-07-21T05:18:01.901Z,100803.25
2023-07-21T05:19:04.541Z,100803.06
2023-07-21T05:20:11.039Z,100803.59
2023-07-21T05:21:15.243Z,100797.47
2023-07-21T05:22:21.135Z,100802.81
2023-07-21T05:23:23.690Z,100807.06
2023-07-21T05:24:27.200Z,100801.56
2023-07-21T05:25:29.540Z,100801.50
2023-07-21T05:26:37.192Z,100808.06
2023-07-21T05:27:39.870Z,100799.78
2023-07-21T05:28:43.902Z,100800.19
2023-07-21T05:29:46.303Z,100806.16
2023-07-21T05:30:50.198Z,100807.72
2023-07-21T05:31:53.504Z,100805.06
2023-07-21T05:32:58.000Z,100810.63
2023-07-21T05:34:00.595Z,100806.53
2023-07-21T05:35:10.686Z,100810.41
2023-07-21T05:36:14.812Z,100807.41
2023-07-21T05:37:18.332Z,100806.84
2023-07-21T05:38:20.759Z,100811.41
2023-07-21T05:39:24.259Z,100815.31
2023-07-21T05:40:26.698Z,100806.97
2023-07-21T05:41:30.110Z,100814.03
2023-07-21T05:42:33.184Z,100818.03
2023-07-21T05:43:38.040Z,100818.59
2023-07-21T05:44:41.953Z,100819.13
2023-07-21T05:45:44.388Z,100824.38
2023-07-21T05:46:47.898Z,100821.44
2023-07-21T05:47:50.401Z,100823.16
2023-07-21T05:48:53.957Z,100818.25
2023-07-21T05:50:02.074Z,100820.25
2023-07-21T05:51:05.756Z,100822.47
2023-07-21T05:52:10.316Z,100814.97
2023-07-21T05:53:13.821Z,100815.63
2023-07-21T05:54:16.353Z,100813.69
2023-07-21T05:55:19.899Z,100819.19
2023-07-21T05:56:22.409Z,100816.38
2023-07-21T05:57:24.955Z,100815.13
2023-07-21T05:58:29.169Z,100811.00
2023-07-21T05:59:33.426Z,100811.16
2023-07-21T06:00:40.418Z,100811.16
2023-07-21T06:01:43.320Z,100816.22
2023-07-21T06:02:46.922Z,100810.84
2023-07-21T06:03:49.509Z,100818.19
2023-07-21T06:04:57.879Z,100809.28
2023-07-21T06:06:00.569Z,100811.25
2023-07-21T06:07:04.486Z,100808.00
2023-07-21T06:08:10.997Z,100808.91
2023-07-21T06:09:14.821Z,100805.88
2023-07-21T06:10:17.803Z,100803.81
2023-07-21T06:11:21.257Z,100811.94
2023-07-21T06:12:24.678Z,100810.19
2023-07-21T06:13:29.798Z,100816.06
2023-07-21T06:14:32.466Z,100810.44
2023-07-21T06:15:38.016Z,100811.69
2023-07-21T06:16:40.444Z,100812.50
2023-07-21T06:17:44.040Z,100817.78
2023-07-21T06:18:47.156Z,100813.13
2023-07-21T06:19:51.427Z,100813.28
2023-07-21T06:20:54.372Z,100813.59
2023-07-21T06:21:57.787Z,100814.56
2023-07-21T06:23:02.301Z,100825.19
2023-07-21T06:24:07.899Z,100816.88
2023-07-21T06:25:12.867Z,100822.22
2023-07-21T06:26:17.360Z,100821.69
2023-07-21T06:27:20.487Z,100832.41
2023-07-21T06:28:24.418Z,100829.81
2023-07-21T06:29:27.112Z,100837.66
2023-07-21T06:30:31.102Z,100836.78
2023-07-21T06:31:33.619Z,100835.31
2023-07-21T06:32:37.230Z,100844.59
2023-07-21T06:33:40.032Z,100840.78
2023-07-21T06:34:43.577Z,100845.47
2023-07-21T06:35:46.187Z,100851.31
2023-07-21T06:36:49.645Z,100843.47
2023-07-21T06:37:52.073Z,100846.81
2023-07-21T06:38:55.555Z,100846.25
2023-07-21T06:39:59.265Z,100842.00
2023-07-21T06:41:01.854Z,100839.22
2023-07-21T06:42:06.775Z,100849.16
2023-07-21T06:43:09.216Z,100837.25
2023-07-21T06:44:13.788Z,100842.47
2023-07-21T06:45:16.658Z,100838.13
2023-07-21T06:46:20.629Z,100843.16
2023-07-21T06:47:23.126Z,100837.44
2023-07-21T06:48:27.242Z,100838.31
2023-07-21T06:49:29.558Z,100836.44
2023-07-21T06:50:33.484Z,100840.13
2023-07-21T06:51:36.788Z,100837.44
2023-07-21T06:52:40.803Z,100836.00
2023-07-21T06:53:43.403Z,100837.00
2023-07-21T06:54:47.065Z,100831.66
2023-07-21T06:55:53.276Z,100832.88
2023-07-21T06:56:55.648Z,100833.66
2023-07-21T06:57:59.188Z,100833.66
2023-07-21T07:00:08.330Z,100833.66
2023-07-21T07:01:10.720Z,100836.88
2023-07-21T07:02:14.735Z,100832.09
2023-07-21T07:03:17.701Z,100835.13
2023-07-21T07:04:23.097Z,100829.75
2023-07-21T07:05:25.638Z,100831.53
2023-07-21T07:06:29.969Z,100834.63
2023-07-21T07:07:32.332Z,100836.75
2023-07-21T07:08:36.276Z,100838.66
2023-07-21T07:09:39.023Z,100835.19
2023-07-21T07:10:42.786Z,100831.34
2023-07-21T07:11:46.767Z,100836.09
2023-07-21T07:12:51.564Z,100840.31
2023-07-21T07:13:55.735Z,100834.00
2023-07-21T07:14:59.790Z,100830.00
2023-07-21T07:16:02.565Z,100836.16
2023-07-21T07:17:06.087Z,100828.56
2023-07-21T07:18:10.468Z,100831.44
2023-07-21T07:19:14.142Z,100830.06
2023-07-21T07:20:16.710Z,100830.41
2023-07-21T07:21:22.168Z,100832.22
2023-07-21T07:22:24.545Z,100827.66
2023-07-21T07:23:28.422Z,100829.47
2023-07-21T07:24:30.855Z,100835.63
2023-07-21T07:25:34.398Z,100842.31
2023-07-21T07:26:36.854Z,100833.50
2023-07-21T07:27:41.788Z,100840.16
2023-07-21T07:28:44.172Z,100836.50
2023-07-21T07:29:48.315Z,100829.09
2023-07-21T07:30:51.289Z,100840.53
2023-07-21T07:31:55.144Z,100845.19
2023-07-21T07:32:57.724Z,100839.97
2023-07-21T07:34:01.558Z,100840.16
2023-07-21T07:35:04.506Z,100842.03
2023-07-21T07:36:07.994Z,100833.88
2023-07-21T07:37:10.419Z,100845.72
2023-07-21T07:38:13.980Z,100844.25
2023-07-21T07:39:16.661Z,100844.06
2023-07-21T07:40:20.431Z,100845.88
2023-07-21T07:41:22.946Z,100848.88
2023-07-21T07:42:26.799Z,100846.88
2023-07-21T07:43:30.872Z,100847.25
2023-07-21T07:44:34.464Z,100852.28
2023-07-21T07:45:37.882Z,100849.25
2023-07-21T07:46:42.135Z,100860.84
2023-07-21T07:47:45.550Z,100858.34
2023-07-21T07:48:50.528Z,100855.00
2023-07-21T07:49:52.962Z,100851.53
2023-07-21T07:50:56.567Z,100857.59
2023-07-21T07:51:59.164Z,100850.53
2023-07-21T07:53:02.629Z,100854.50
2023-07-21T07:54:06.707Z,100850.75
2023-07-21T07:55:10.691Z,100852.56
2023-07-21T07:56:15.540Z,100856.25
2023-07-21T07:57:19.523Z,100852.56
2023-07-21T07:58:22.302Z,100852.31
2023-07-21T07:59:27.943Z,100854.13
2023-07-21T08:00:30.394Z,100852.38
2023-07-21T08:01:33.841Z,100858.38
2023-07-21T08:02:36.192Z,100858.16
2023-07-21T08:03:39.718Z,100865.00
2023-07-21T08:04:42.419Z,100854.59
2023-07-21T08:05:46.205Z,100851.22
2023-07-21T08:06:48.551Z,100856.13
2023-07-21T08:07:51.965Z,100857.09
2023-07-21T08:08:54.423Z,100849.94
2023-07-21T08:09:58.127Z,100855.94
2023-07-21T08:11:03.002Z,100849.16
2023-07-21T08:12:07.106Z,100856.69
2023-07-21T08:13:09.918Z,100859.38
2023-07-21T08:14:13.472Z,100855.00
2023-07-21T08:15:17.497Z,100851.53
2023-07-21T08:16:21.276Z,100851.00
2023-07-21T08:17:25.301Z,100847.09
2023-07-21T08:18:28.847Z,100858.84
2023-07-21T08:19:32.353Z,100853.91
2023-07-21T08:20:38.771Z,100847.09
2023-07-21T08:21:41.706Z,100860.50
2023-07-21T08:22:45.524Z,100868.91
2023-07-21T08:23:48.000Z,100859.91
2023-07-21T08:24:51.557Z,100863.72
2023-07-21T08:25:55.331Z,100858.91
2023-07-21T08:27:00.514Z,100862.38
2023-07-21T08:28:04.906Z,100863.47
2023-07-21T08:29:10.522Z,100869.06
2023-07-21T08:30:16.102Z,100855.09
2023-07-21T08:31:23.487Z,100854.78
2023-07-21T08:32:26.846Z,100862.38
2023-07-21T08:33:31.255Z,100863.28
2023-07-21T08:34:33.952Z,100863.16
2023-07-21T08:35:37.617Z,100858.47
2023-07-21T08:36:48.408Z,100859.81
2023-07-21T08:37:57.401Z,100864.31
2023-07-21T08:39:00.771Z,100868.19
2023-07-21T08:40:04.536Z,100867.44
2023-07-21T08:41:09.846Z,100872.53
2023-07-21T08:42:14.514Z,100866.53
2023-07-21T08:43:19.052Z,100866.06
2023-07-21T08:44:23.710Z,100866.94
2023-07-21T08:45:32.833Z,100864.03
2023-07-21T08:46:36.654Z,100861.91
2023-07-21T08:47:40.236Z,100873.28
2023-07-21T08:48:43.294Z,100858.25
2023-07-21T08:49:46.975Z,100865.38
2023-07-21T08:50:50.274Z,100865.56
2023-07-21T08:51:53.799Z,100868.91
2023-07-21T08:52:56.745Z,100869.63
2023-07-21T08:54:00.673Z,100876.56
2023-07-21T08:55:03.280Z,100872.63
2023-07-21T08:56:07.610Z,100868.06
2023-07-21T08:57:12.015Z,100872.06
2023-07-21T08:58:16.798Z,100874.91
2023-07-21T08:59:19.495Z,100875.84
2023-07-21T09:00:26.147Z,100872.69
2023-07-21T09:01:28.782Z,100870.41
2023-07-21T09:02:48.997Z,100869.94
2023-07-21T09:03:51.713Z,100876.16
2023-07-21T09:04:55.773Z,100868.75
2023-07-21T09:06:01.325Z,100876.03
2023-07-21T09:07:06.301Z,100883.91
2023-07-21T09:08:20.220Z,100878.88
2023-07-21T09:09:24.554Z,100888.34
2023-07-21T09:10:34.737Z,100881.53
2023-07-21T09:11:38.505Z,100886.97
2023-07-21T09:12:40.855Z,100884.81
2023-07-21T09:13:53.294Z,100895.13
2023-07-21T09:14:55.686Z,100888.25
2023-07-21T09:16:01.716Z,100893.63
2023-07-21T09:17:06.324Z,100890.69
2023-07-21T09:18:11.585Z,100890.84
2023-07-21T09:19:14.063Z,100894.66
2023-07-21T09:20:19.227Z,100896.38
2023-07-21T09:21:22.736Z,100894.94
2023-07-21T09:22:26.728Z,100893.84
2023-07-21T09:23:31.362Z,100896.44
2023-07-21T09:24:35.388Z,100901.13
2023-07-21T09:25:38.240Z,100900.78
2023-07-21T09:26:41.637Z,100904.03
2023-07-21T09:27:54.240Z,100902.84
2023-07-21T09:28:57.721Z,100906.31
2023-07-21T09:30:01.619Z,100907.25
2023-07-21T09:31:04.307Z,100912.50
2023-07-21T09:32:13.521Z,100913.03
2023-07-21T09:33:21.747Z,100911.50
2023-07-21T09:34:25.680Z,100916.41
2023-07-21T09:35:30.091Z,100922.38
2023-07-21T09:36:33.841Z,100916.22
2023-07-21T09:37:36.682Z,100914.94
2023-07-21T09:38:41.782Z,100918.22
2023-07-21T09:39:45.049Z,100918.75
2023-07-21T09:40:48.377Z,100922.38
2023-07-21T09:41:52.742Z,100919.09
2023-07-21T09:42:57.015Z,100922.22
2023-07-21T09:44:00.272Z,100926.16
2023-07-21T09:45:05.225Z,100943.94
2023-07-21T09:46:17.710Z,100931.41
2023-07-21T09:47:24.034Z,100929.59
2023-07-21T09:48:30.240Z,100936.22
2023-07-21T09:49:36.620Z,100929.38
2023-07-21T09:50:42.192Z,100934.75
2023-07-21T09:51:51.174Z,100934.66
2023-07-21T09:52:56.529Z,100941.25
2023-07-21T09:54:05.071Z,100941.03
2023-07-21T09:55:11.741Z,100939.81
2023-07-21T09:56:16.629Z,100935.78
2023-07-21T09:57:24.597Z,100935.88
2023-07-21T09:58:29.921Z,100941.94
2023-07-21T09:59:37.785Z,100943.28
2023-07-21T10:00:42.197Z,100947.97
2023-07-21T10:01:50.184Z,100944.94
2023-07-21T10:02:53.128Z,100945.16
2023-07-21T10:04:00.201Z,100947.03
2023-07-21T10:05:06.077Z,100945.47
2023-07-21T10:06:10.413Z,100938.88
2023-07-21T10:07:14.730Z,100939.53
2023-07-21T10:08:19.234Z,100943.00
2023-07-21T10:09:22.090Z,100940.75
2023-07-21T10:10:25.934Z,100942.22
2023-07-21T10:11:29.190Z,100933.16
2023-07-21T10:12:44.156Z,100932.22
2023-07-21T10:13:49.793Z,100931.28
2023-07-21T10:14:53.395Z,100930.09
2023-07-21T10:16:03.188Z,100929.81
2023-07-21T10:17:05.948Z,100926.47
2023-07-21T10:18:12.290Z,100927.50
2023-07-21T10:19:16.349Z,100928.97
2023-07-21T10:20:20.705Z,100922.84
2023-07-21T10:21:24.814Z,100916.31
2023-07-21T10:22:28.036Z,100918.59
2023-07-21T10:23:35.717Z,100921.16
2023-07-21T10:24:46.091Z,100918.75
2023-07-21T10:25:56.359Z,100917.63
2023-07-21T10:27:04.651Z,100919.53
2023-07-21T10:28:07.666Z,100923.25
2023-07-21T10:29:20.492Z,100920.75
2023-07-21T10:30:23.542Z,100925.84
2023-07-21T10:31:39.975Z,100929.66
2023-07-21T10:32:44.727Z,100923.63
2023-07-21T10:34:03.341Z,100924.31
2023-07-21T10:35:09.849Z,100921.09
2023-07-21T10:36:15.636Z,100926.00
2023-07-21T10:37:19.454Z,100927.84
2023-07-21T10:38:25.974Z,100921.09
2023-07-21T10:39:31.241Z,100924.91
2023-07-21T10:40:35.131Z,100925.25
2023-07-21T10:41:37.719Z,100924.47
2023-07-21T10:42:42.023Z,100927.84
2023-07-21T10:43:44.908Z,100921.69
2023-07-21T10:44:50.058Z,100928.03
2023-07-21T10:45:55.183Z,100931.31
2023-07-21T10:46:58.890Z,100921.88
2023-07-21T10:48:12.718Z,100931.00
2023-07-21T10:49:17.923Z,100928.91
2023-07-21T10:50:23.374Z,100925.84
2023-07-21T10:51:26.960Z,100933.06
2023-07-21T10:52:29.840Z,100919.59
2023-07-21T10:53:34.284Z,100926.75
2023-07-21T10:54:37.459Z,100933.94
2023-07-21T10:55:45.309Z,100925.56
2023-07-21T10:56:51.593Z,100928.31
2023-07-21T10:57:56.041Z,100929.31
2023-07-21T10:58:58.496Z,100928.44
2023-07-21T11:00:02.290Z,100927.84
2023-07-21T11:01:04.701Z,100926.00
2023-07-21T11:02:09.930Z,100923.13
2023-07-21T11:03:12.741Z,100927.63
2023-07-21T11:04:18.310Z,100927.13
2023-07-21T11:05:23.967Z,100928.13
2023-07-21T11:06:27.477Z,100930.38
2023-07-21T11:07:29.826Z,100925.50
2023-07-21T11:08:33.465Z,100926.63
2023-07-21T11:09:43.980Z,100937.22
2023-07-21T11:10:47.350Z,100930.81
2023-07-21T11:11:51.846Z,100932.06
2023-07-21T11:12:55.487Z,100932.69
2023-07-21T11:13:58.268Z,100929.22
2023-07-21T11:15:01.820Z,100929.56
2023-07-21T11:16:04.399Z,100933.09
2023-07-21T11:17:08.458Z,100942.56
2023-07-21T11:18:11.754Z,100937.06
2023-07-21T11:19:17.891Z,100934.88
2023-07-21T11:20:21.853Z,100929.22
2023-07-21T11:21:26.187Z,100936.44
2023-07-21T11:22:32.548Z,100939.59
2023-07-21T11:23:36.661Z,100939.69
2023-07-21T11:24:39.343Z,100935.94
2023-07-21T11:25:42.843Z,100933.63
2023-07-21T11:26:47.034Z,100941.59
2023-07-21T11:27:50.672Z,100937.59
2023-07-21T11:28:53.211Z,100928.66
2023-07-21T11:29:57.344Z,100931.19
2023-07-21T11:31:01.916Z,100937.22
2023-07-21T11:32:18.407Z,100941.06
2023-07-21T11:33:21.124Z,100938.09
2023-07-21T11:34:25.966Z,100934.34
2023-07-21T11:35:34.404Z,100940.38
2023-07-21T11:36:38.122Z,100933.00
2023-07-21T11:37:42.894Z,100932.34
2023-07-21T11:38:59.836Z,100935.84
2023-07-21T11:40:06.820Z,100944.97
2023-07-21T11:41:10.402Z,100939.78
2023-07-21T11:42:12.921Z,100933.13
2023-07-21T11:43:16.718Z,100942.47
2023-07-21T11:44:24.087Z,100943.69
2023-07-21T11:45:37.632Z,100953.03
2023-07-21T11:46:41.068Z,100948.59
2023-07-21T11:47:45.003Z,100943.84
2023-07-21T11:48:49.944Z,100943.75
2023-07-21T11:49:57.186Z,100947.47
2023-07-21T11:51:05.626Z,100951.09
2023-07-21T11:52:11.072Z,100942.97
2023-07-21T11:53:14.311Z,100944.78
2023-07-21T11:54:22.296Z,100949.97
2023-07-21T11:55:24.714Z,100949.03
2023-07-21T11:56:29.165Z,100949.53
2023-07-21T11:57:31.498Z,100941.47
2023-07-21T11:58:34.927Z,100953.19
2023-07-21T11:59:37.615Z,100950.56
2023-07-21T12:00:43.408Z,100943.72
2023-07-21T12:01:46.695Z,100940.09
2023-07-21T12:02:50.188Z,100934.16
2023-07-21T12:03:52.813Z,100943.69
2023-07-21T12:04:55.330Z,100939.22
2023-07-21T12:05:59.052Z,100943.75
2023-07-21T12:07:03.999Z,100944.97
2023-07-21T12:08:08.049Z,100941.78
2023-07-21T12:09:10.993Z,100940.84
2023-07-21T12:10:14.514Z,100940.78
2023-07-21T12:11:17.686Z,100941.44
2023-07-21T12:12:21.279Z,100945.34
2023-07-21T12:13:23.699Z,100948.41
2023-07-21T12:14:27.511Z,100946.22
2023-07-21T12:15:31.080Z,100955.63